Time;durP1;ratioP1;P1;durP2;ratioP2;P2;SDS_P1;SDS_P2;PMS_P1;PMS_P2;Temp;Humidity;BMP_temperature;BMP_pressure;BME280_temperature;BME280_humidity;BME280_pressure;Samples;Min_cycle;Max_cycle;Signal;HPM_P1;HPM_P2
2023/06/17 00:00:22;;;;;;;10.70;8.57;;;;;;;;;;5017285;28;20046;-83
2023/06/17 00:02:49;;;;;;;10.05;7.97;;;;;;;;;;5016357;28;21841;-84
2023/06/17 00:05:18;;;;;;;10.43;8.35;;;;;;;;;;5016354;28;20077;-83
2023/06/17 00:07:45;;;;;;;9.75;7.78;;;;;;;;;;5015503;28;20121;-83
2023/06/17 00:10:12;;;;;;;9.60;7.57;;;;;;;;;;5015451;28;20358;-82
2023/06/17 00:12:40;;;;;;;9.75;8.50;;;;;;;;;;5016967;28;20125;-82
2023/06/17 00:15:08;;;;;;;9.18;7.70;;;;;;;;;;5016940;28;20096;-82
2023/06/17 00:17:35;;;;;;;9.40;7.25;;;;;;;;;;5016307;28;20513;-82
2023/06/17 00:20:07;;;;;;;9.93;7.72;;;;;;;;;;5015338;28;20054;-81
2023/06/17 00:22:34;;;;;;;9.98;8.10;;;;;;;;;;5003706;28;20088;-83
2023/06/17 00:25:02;;;;;;;10.52;8.32;;;;;;;;;;5016022;28;20100;-83
2023/06/17 00:27:28;;;;;;;9.45;8.18;;;;;;;;;;5015346;28;20049;-83
2023/06/17 00:29:59;;;;;;;10.80;8.20;;;;;;;;;;5033663;28;20081;-82
2023/06/17 00:32:26;;;;;;;8.85;7.65;;;;;;;;;;5031595;28;20134;-83
2023/06/17 00:34:53;;;;;;;9.05;7.45;;;;;;;;;;5016024;28;20144;-83
2023/06/17 00:37:20;;;;;;;8.60;7.43;;;;;;;;;;5016074;28;20081;-82
2023/06/17 00:39:46;;;;;;;8.80;7.90;;;;;;;;;;5015903;28;20085;-82
2023/06/17 00:42:13;;;;;;;9.80;8.27;;;;;;;;;;5016512;28;20038;-83
2023/06/17 00:44:40;;;;;;;10.20;7.70;;;;;;;;;;5016090;28;20501;-82
2023/06/17 00:47:10;;;;;;;10.18;7.68;;;;;;;;;;5016061;28;20045;-83
2023/06/17 00:49:38;;;;;;;9.77;8.35;;;;;;;;;;5016011;28;20056;-82
2023/06/17 00:52:07;;;;;;;10.00;8.63;;;;;;;;;;5015973;28;20504;-82
2023/06/17 00:54:36;;;;;;;12.77;9.48;;;;;;;;;;5024440;28;20584;-82
2023/06/17 00:57:03;;;;;;;11.40;9.15;;;;;;;;;;5036269;28;20049;-82
2023/06/17 00:59:33;;;;;;;11.02;8.50;;;;;;;;;;5036070;28;20084;-81
2023/06/17 01:02:00;;;;;;;12.27;9.10;;;;;;;;;;5037804;28;20053;-82
2023/06/17 01:04:28;;;;;;;9.73;8.52;;;;;;;;;;5038554;28;20049;-82
2023/06/17 01:07:03;;;;;;;12.13;9.77;;;;;;;;;;5027756;28;20049;-82
2023/06/17 01:09:34;;;;;;;10.98;8.65;;;;;;;;;;5019175;28;20109;-80
2023/06/17 01:12:02;;;;;;;10.93;9.63;;;;;;;;;;5021142;28;20042;-82
2023/06/17 01:14:31;;;;;;;11.75;9.57;;;;;;;;;;5020510;28;20053;-83
2023/06/17 01:16:58;;;;;;;11.20;9.60;;;;;;;;;;5020743;28;20050;-82
2023/06/17 01:19:25;;;;;;;12.18;9.65;;;;;;;;;;5019773;28;20056;-82
2023/06/17 01:21:54;;;;;;;12.52;10.05;;;;;;;;;;5020600;28;20456;-82
2023/06/17 01:24:27;;;;;;;12.25;10.55;;;;;;;;;;5020869;28;20496;-81
2023/06/17 01:26:56;;;;;;;10.85;9.65;;;;;;;;;;5006889;28;20046;-82
2023/06/17 01:29:23;;;;;;;13.30;10.93;;;;;;;;;;5030713;28;20073;-82
2023/06/17 01:31:51;;;;;;;12.43;10.20;;;;;;;;;;5041809;28;20062;-84
2023/06/17 01:34:21;;;;;;;12.93;10.57;;;;;;;;;;5036187;28;20050;-81
2023/06/17 01:36:51;;;;;;;12.35;10.90;;;;;;;;;;5002830;28;20088;-83
2023/06/17 01:39:24;;;;;;;13.13;11.63;;;;;;;;;;5016832;28;20493;-82
2023/06/17 01:41:56;;;;;;;14.70;10.85;;;;;;;;;;5025491;28;20056;-82
2023/06/17 01:44:24;;;;;;;11.82;10.23;;;;;;;;;;5034016;28;20054;-83
2023/06/17 01:46:50;;;;;;;12.63;10.90;;;;;;;;;;5020563;28;20046;-81
2023/06/17 01:49:17;;;;;;;11.93;10.73;;;;;;;;;;5018063;28;20050;-82
2023/06/17 01:51:44;;;;;;;12.43;10.70;;;;;;;;;;5017902;28;20325;-82
2023/06/17 01:54:11;;;;;;;12.10;10.70;;;;;;;;;;5019949;28;20096;-82
2023/06/17 01:56:37;;;;;;;11.95;10.73;;;;;;;;;;5019023;28;20046;-81
2023/06/17 01:59:05;;;;;;;12.13;10.57;;;;;;;;;;5019535;28;20050;-81
2023/06/17 02:01:32;;;;;;;13.60;9.70;;;;;;;;;;5018999;28;20049;-81
2023/06/17 02:03:59;;;;;;;11.52;9.95;;;;;;;;;;5019513;28;20053;-82
2023/06/17 02:06:25;;;;;;;12.57;9.88;;;;;;;;;;5021124;28;20050;-83
2023/06/17 02:08:53;;;;;;;12.98;9.82;;;;;;;;;;5022172;28;20054;-81
2023/06/17 02:11:20;;;;;;;11.23;9.18;;;;;;;;;;5022402;28;20049;-82
2023/06/17 02:13:46;;;;;;;11.18;9.65;;;;;;;;;;5023574;28;20053;-80
2023/06/17 02:16:14;;;;;;;11.80;9.55;;;;;;;;;;5023755;28;20114;-82
2023/06/17 02:18:41;;;;;;;13.20;9.55;;;;;;;;;;5023003;28;20129;-83
2023/06/17 02:21:08;;;;;;;12.57;10.52;;;;;;;;;;5019340;28;20047;-80
2023/06/17 02:23:35;;;;;;;12.27;9.75;;;;;;;;;;5016384;28;20044;-81
2023/06/17 02:26:02;;;;;;;11.95;9.98;;;;;;;;;;5030037;28;20041;-83
2023/06/17 02:28:29;;;;;;;11.23;9.75;;;;;;;;;;5028914;28;20045;-81
2023/06/17 02:30:55;;;;;;;12.70;9.55;;;;;;;;;;5025846;28;20105;-82
2023/06/17 02:33:23;;;;;;;10.63;9.18;;;;;;;;;;5023577;28;20038;-82
2023/06/17 02:35:50;;;;;;;10.63;9.05;;;;;;;;;;5022766;28;20088;-86
2023/06/17 02:38:17;;;;;;;12.48;10.05;;;;;;;;;;5023190;28;20088;-80
2023/06/17 02:40:44;;;;;;;9.93;8.82;;;;;;;;;;5022093;28;20122;-82
2023/06/17 02:43:10;;;;;;;10.40;8.68;;;;;;;;;;5022602;28;20575;-82
2023/06/17 02:45:37;;;;;;;11.68;9.45;;;;;;;;;;5025321;28;20092;-81
2023/06/17 02:48:04;;;;;;;10.90;9.32;;;;;;;;;;5024475;28;20046;-80
2023/06/17 02:50:33;;;;;;;11.43;9.10;;;;;;;;;;5016209;28;20050;-81
2023/06/17 02:53:00;;;;;;;11.45;9.65;;;;;;;;;;5022683;28;20077;-81
2023/06/17 02:55:27;;;;;;;10.95;9.52;;;;;;;;;;5025848;28;20104;-81
2023/06/17 02:57:54;;;;;;;11.48;9.40;;;;;;;;;;5028926;28;20077;-82
2023/06/17 03:00:21;;;;;;;11.38;9.95;;;;;;;;;;5032159;28;20231;-81
2023/06/17 03:02:48;;;;;;;11.13;9.88;;;;;;;;;;5032838;28;20053;-82
2023/06/17 03:05:16;;;;;;;11.82;10.00;;;;;;;;;;5024938;28;20065;-83
2023/06/17 03:07:45;;;;;;;12.07;10.50;;;;;;;;;;5030955;28;20042;-83
2023/06/17 03:10:12;;;;;;;11.00;9.23;;;;;;;;;;5018020;28;20418;-79
2023/06/17 03:12:39;;;;;;;12.13;9.77;;;;;;;;;;5018129;28;20053;-80
2023/06/17 03:15:08;;;;;;;12.20;9.60;;;;;;;;;;5027951;28;20042;-82
2023/06/17 03:17:35;;;;;;;12.43;10.43;;;;;;;;;;5028071;28;20042;-81
2023/06/17 03:20:05;;;;;;;12.40;10.80;;;;;;;;;;5029025;28;20042;-81
2023/06/17 03:22:33;;;;;;;12.23;10.93;;;;;;;;;;5026513;28;20061;-81
2023/06/17 03:25:01;;;;;;;12.70;10.68;;;;;;;;;;5026007;28;20041;-81
2023/06/17 03:27:28;;;;;;;12.07;10.32;;;;;;;;;;5022717;28;20054;-82
2023/06/17 03:29:54;;;;;;;11.85;10.27;;;;;;;;;;5029530;28;20065;-81
2023/06/17 03:32:21;;;;;;;13.70;10.77;;;;;;;;;;5045722;28;20045;-82
2023/06/17 03:34:49;;;;;;;12.15;10.77;;;;;;;;;;5026167;28;20041;-82
2023/06/17 03:37:15;;;;;;;13.70;11.57;;;;;;;;;;5011074;28;20061;-81
2023/06/17 03:39:43;;;;;;;12.98;10.75;;;;;;;;;;5012028;28;20038;-83
2023/06/17 03:42:11;;;;;;;11.30;9.38;;;;;;;;;;5011904;28;20114;-83
2023/06/17 03:44:38;;;;;;;12.40;10.10;;;;;;;;;;5009942;28;20093;-81
2023/06/17 03:47:06;;;;;;;12.02;9.20;;;;;;;;;;5007746;28;20077;-83
2023/06/17 03:49:32;;;;;;;11.88;10.35;;;;;;;;;;5011162;28;20069;-84
2023/06/17 03:51:59;;;;;;;11.02;9.50;;;;;;;;;;5010653;28;20046;-83
2023/06/17 03:54:26;;;;;;;10.23;9.10;;;;;;;;;;5012100;28;20124;-81
2023/06/17 03:56:53;;;;;;;11.65;9.52;;;;;;;;;;5018243;28;20080;-82
2023/06/17 03:59:21;;;;;;;12.15;9.25;;;;;;;;;;5023565;28;20048;-83
2023/06/17 04:01:47;;;;;;;12.48;9.48;;;;;;;;;;5028389;28;20072;-84
2023/06/17 04:04:14;;;;;;;10.80;8.60;;;;;;;;;;5028294;28;20042;-83
2023/06/17 04:06:41;;;;;;;11.70;8.88;;;;;;;;;;5029625;28;20042;-83
2023/06/17 04:09:08;;;;;;;9.05;7.57;;;;;;;;;;5020736;28;20489;-83
2023/06/17 04:11:34;;;;;;;9.43;7.28;;;;;;;;;;5020918;28;20137;-83
2023/06/17 04:14:01;;;;;;;9.15;7.07;;;;;;;;;;5020738;28;20058;-82
2023/06/17 04:16:30;;;;;;;8.20;6.97;;;;;;;;;;5022310;28;20046;-83
2023/06/17 04:18:57;;;;;;;8.20;6.13;;;;;;;;;;5022007;28;20049;-83
2023/06/17 04:21:24;;;;;;;9.70;7.63;;;;;;;;;;5021537;28;20050;-82
2023/06/17 04:23:51;;;;;;;9.48;7.18;;;;;;;;;;5022393;28;20073;-83
2023/06/17 04:26:18;;;;;;;9.95;7.10;;;;;;;;;;5025851;28;20050;-83
2023/06/17 04:28:46;;;;;;;8.63;6.93;;;;;;;;;;5028017;28;20050;-85
2023/06/17 04:31:12;;;;;;;9.13;6.90;;;;;;;;;;5029523;28;20046;-82
2023/06/17 04:33:41;;;;;;;8.93;7.40;;;;;;;;;;5025845;28;20050;-83
2023/06/17 04:36:09;;;;;;;9.18;7.25;;;;;;;;;;5024284;28;20454;-84
2023/06/17 04:38:36;;;;;;;9.55;7.18;;;;;;;;;;5024834;28;20046;-83
2023/06/17 04:41:05;;;;;;;7.85;6.50;;;;;;;;;;5019983;28;20058;-82
2023/06/17 04:43:33;;;;;;;9.38;7.65;;;;;;;;;;5020022;28;20104;-83
2023/06/17 04:46:01;;;;;;;9.55;7.47;;;;;;;;;;5019060;28;20042;-83
2023/06/17 04:48:28;;;;;;;7.60;6.78;;;;;;;;;;5026320;28;20049;-83
2023/06/17 04:50:57;;;;;;;8.55;7.28;;;;;;;;;;5029342;28;20128;-83
2023/06/17 04:53:24;;;;;;;9.82;7.72;;;;;;;;;;5017482;28;20051;-82
2023/06/17 04:55:53;;;;;;;11.05;8.60;;;;;;;;;;5032610;28;20060;-85
2023/06/17 04:58:20;;;;;;;11.05;8.70;;;;;;;;;;5035265;28;20057;-84
2023/06/17 05:00:47;;;;;;;12.27;10.48;;;;;;;;;;5035249;28;20037;-82
2023/06/17 05:03:13;;;;;;;12.73;9.75;;;;;;;;;;5035710;28;20065;-85
2023/06/17 05:05:40;;;;;;;11.93;9.55;;;;;;;;;;5032386;28;20057;-84
2023/06/17 05:08:08;;;;;;;11.65;10.45;;;;;;;;;;5034211;28;20101;-85
2023/06/17 05:10:34;;;;;;;9.10;7.88;;;;;;;;;;5033860;28;20042;-82
2023/06/17 05:13:01;;;;;;;9.88;7.70;;;;;;;;;;5033398;28;20054;-82
2023/06/17 05:15:28;;;;;;;8.90;7.30;;;;;;;;;;5034827;28;20049;-84
2023/06/17 05:17:54;;;;;;;9.57;7.43;;;;;;;;;;5036301;28;20053;-82
2023/06/17 05:20:21;;;;;;;9.02;7.20;;;;;;;;;;5038222;28;20060;-83
2023/06/17 05:22:48;;;;;;;9.40;7.18;;;;;;;;;;5038995;28;20097;-83
2023/06/17 05:25:16;;;;;;;8.95;6.97;;;;;;;;;;5040091;28;20034;-85
2023/06/17 05:27:42;;;;;;;10.00;7.70;;;;;;;;;;5039473;28;20137;-81
2023/06/17 05:30:10;;;;;;;8.50;6.82;;;;;;;;;;5037443;28;20045;-83
2023/06/17 05:32:36;;;;;;;10.43;7.57;;;;;;;;;;5035456;28;20049;-81
2023/06/17 05:35:04;;;;;;;8.02;6.88;;;;;;;;;;5033823;28;20049;-81
2023/06/17 05:37:31;;;;;;;9.20;6.60;;;;;;;;;;5034165;28;20077;-81
2023/06/17 05:39:58;;;;;;;9.02;7.15;;;;;;;;;;5035390;28;20101;-81
2023/06/17 05:42:26;;;;;;;9.18;6.55;;;;;;;;;;5034172;28;20045;-81
2023/06/17 05:44:52;;;;;;;7.90;6.70;;;;;;;;;;5032947;28;20114;-81
2023/06/17 05:47:19;;;;;;;9.50;7.25;;;;;;;;;;5032370;28;20061;-82
2023/06/17 05:49:46;;;;;;;10.13;7.40;;;;;;;;;;5035494;28;20049;-81
2023/06/17 05:52:12;;;;;;;9.82;6.88;;;;;;;;;;5033490;28;20038;-81
2023/06/17 05:54:39;;;;;;;10.00;7.00;;;;;;;;;;5022530;28;20073;-82
2023/06/17 05:57:06;;;;;;;8.93;6.82;;;;;;;;;;5020480;28;20049;-83
2023/06/17 05:59:34;;;;;;;9.45;7.03;;;;;;;;;;5018295;28;20145;-83
2023/06/17 06:02:01;;;;;;;8.55;7.00;;;;;;;;;;5020455;28;20050;-82
2023/06/17 06:04:27;;;;;;;9.60;7.55;;;;;;;;;;5019353;28;20529;-82
2023/06/17 06:06:55;;;;;;;8.82;6.82;;;;;;;;;;5020438;28;20056;-83
2023/06/17 06:09:21;;;;;;;8.50;6.53;;;;;;;;;;5020379;28;20054;-83
2023/06/17 06:11:48;;;;;;;9.75;7.13;;;;;;;;;;5020396;28;20046;-83
2023/06/17 06:14:15;;;;;;;8.27;6.53;;;;;;;;;;5019932;28;20114;-83
2023/06/17 06:16:43;;;;;;;8.52;6.57;;;;;;;;;;5021141;28;20517;-83
2023/06/17 06:19:09;;;;;;;11.55;7.22;;;;;;;;;;5019822;28;20117;-83
2023/06/17 06:21:36;;;;;;;9.23;6.78;;;;;;;;;;5018860;28;20292;-82
2023/06/17 06:24:03;;;;;;;8.98;6.70;;;;;;;;;;5016332;28;20083;-82
2023/06/17 06:26:29;;;;;;;10.27;7.07;;;;;;;;;;5016796;28;20077;-83
2023/06/17 06:28:56;;;;;;;8.90;6.93;;;;;;;;;;5017599;28;20057;-82
2023/06/17 06:31:23;;;;;;;8.40;6.70;;;;;;;;;;5017208;28;20046;-82
2023/06/17 06:33:51;;;;;;;8.55;6.85;;;;;;;;;;5017887;28;20117;-82
2023/06/17 06:36:17;;;;;;;9.18;7.50;;;;;;;;;;5018076;28;20061;-82
2023/06/17 06:38:44;;;;;;;9.23;6.72;;;;;;;;;;5018596;28;20078;-81
2023/06/17 06:41:10;;;;;;;8.25;6.88;;;;;;;;;;5018351;28;20500;-81
2023/06/17 06:43:37;;;;;;;10.75;6.85;;;;;;;;;;5018531;28;20129;-82
2023/06/17 06:46:04;;;;;;;8.25;7.10;;;;;;;;;;5014893;28;20042;-82
2023/06/17 06:48:31;;;;;;;8.77;6.90;;;;;;;;;;5018474;28;20072;-81
2023/06/17 06:51:01;;;;;;;9.07;7.00;;;;;;;;;;5035400;28;20084;-81
2023/06/17 06:53:27;;;;;;;9.40;7.43;;;;;;;;;;5039823;28;20496;-81
2023/06/17 06:55:54;;;;;;;10.30;6.63;;;;;;;;;;5039237;28;20056;-82
2023/06/17 06:58:21;;;;;;;8.43;6.30;;;;;;;;;;5026631;28;20117;-82
2023/06/17 07:00:47;;;;;;;9.80;6.35;;;;;;;;;;5018257;28;20046;-82
2023/06/17 07:03:14;;;;;;;8.63;6.25;;;;;;;;;;5019631;28;20052;-83
2023/06/17 07:05:41;;;;;;;7.65;6.13;;;;;;;;;;5020598;28;20104;-82
2023/06/17 07:08:09;;;;;;;8.65;6.30;;;;;;;;;;5022312;28;20116;-82
2023/06/17 07:10:39;;;;;;;8.27;6.35;;;;;;;;;;5021514;28;20042;-82
2023/06/17 07:13:05;;;;;;;9.20;6.05;;;;;;;;;;5022938;28;20046;-81
2023/06/17 07:15:32;;;;;;;8.60;5.95;;;;;;;;;;5022355;28;20084;-81
2023/06/17 07:17:59;;;;;;;8.68;6.88;;;;;;;;;;5022881;28;20416;-82
2023/06/17 07:20:25;;;;;;;10.13;6.63;;;;;;;;;;5023353;28;20085;-81
2023/06/17 07:22:52;;;;;;;7.63;6.50;;;;;;;;;;5015064;28;20061;-81
2023/06/17 07:25:20;;;;;;;9.75;7.38;;;;;;;;;;5019370;28;20053;-81
2023/06/17 07:27:47;;;;;;;8.82;6.15;;;;;;;;;;5019844;28;20093;-82
2023/06/17 07:30:14;;;;;;;8.40;6.75;;;;;;;;;;5024507;28;20567;-80
2023/06/17 07:32:40;;;;;;;7.88;6.25;;;;;;;;;;5027541;28;20045;-81
2023/06/17 07:35:08;;;;;;;9.07;6.30;;;;;;;;;;5025149;28;20046;-79
2023/06/17 07:37:34;;;;;;;9.40;5.68;;;;;;;;;;5024343;28;20058;-82
2023/06/17 07:40:02;;;;;;;8.65;6.03;;;;;;;;;;5026370;28;20053;-82
2023/06/17 07:42:31;;;;;;;8.80;5.90;;;;;;;;;;5025488;28;20084;-82
2023/06/17 07:44:58;;;;;;;8.07;5.97;;;;;;;;;;5026762;28;20114;-81
2023/06/17 07:47:25;;;;;;;8.05;6.13;;;;;;;;;;5022275;28;20092;-81
2023/06/17 07:49:52;;;;;;;8.52;5.32;;;;;;;;;;5024038;28;20132;-81
2023/06/17 07:52:18;;;;;;;7.95;5.88;;;;;;;;;;5021518;28;20081;-82
2023/06/17 07:54:47;;;;;;;7.95;6.40;;;;;;;;;;5021819;28;20045;-81
2023/06/17 07:57:14;;;;;;;9.70;6.38;;;;;;;;;;5022059;28;20057;-82
2023/06/17 07:59:43;;;;;;;10.30;6.50;;;;;;;;;;5023015;28;20049;-82
2023/06/17 08:02:10;;;;;;;7.63;5.93;;;;;;;;;;5022432;28;20096;-82
2023/06/17 08:04:37;;;;;;;9.10;6.60;;;;;;;;;;5020869;28;20076;-81
2023/06/17 08:07:05;;;;;;;7.97;5.72;;;;;;;;;;5025474;28;20053;-81
2023/06/17 08:09:32;;;;;;;9.30;6.43;;;;;;;;;;5030250;28;20030;-80
2023/06/17 08:11:59;;;;;;;8.13;5.88;;;;;;;;;;5021392;28;20125;-82
2023/06/17 08:14:25;;;;;;;6.82;5.78;;;;;;;;;;5020850;28;20046;-80
2023/06/17 08:16:53;;;;;;;8.88;6.15;;;;;;;;;;5018924;28;20042;-81
2023/06/17 08:19:21;;;;;;;7.90;5.90;;;;;;;;;;5019976;28;20080;-82
2023/06/17 08:21:47;;;;;;;8.88;6.38;;;;;;;;;;5018722;28;20049;-77
2023/06/17 08:24:18;;;;;;;8.65;5.80;;;;;;;;;;5016687;28;20125;-81
2023/06/17 08:26:45;;;;;;;9.13;5.85;;;;;;;;;;5011096;28;20046;-80
2023/06/17 08:29:13;;;;;;;8.70;5.75;;;;;;;;;;5019557;28;20050;-82
2023/06/17 08:31:40;;;;;;;8.20;6.05;;;;;;;;;;5021326;28;20052;-82
2023/06/17 08:34:09;;;;;;;8.75;7.00;;;;;;;;;;5014884;28;20049;-83
2023/06/17 08:36:37;;;;;;;8.38;5.72;;;;;;;;;;5023546;28;20118;-85
2023/06/17 08:39:04;;;;;;;7.35;5.55;;;;;;;;;;5017027;28;20053;-81
2023/06/17 08:41:31;;;;;;;8.15;5.90;;;;;;;;;;5007598;28;20474;-82
2023/06/17 08:44:01;;;;;;;10.10;6.05;;;;;;;;;;5005973;28;20084;-81
2023/06/17 08:46:28;;;;;;;7.75;5.70;;;;;;;;;;5019290;28;20105;-80
2023/06/17 08:48:57;;;;;;;8.48;5.88;;;;;;;;;;5023570;28;20048;-80
2023/06/17 08:51:27;;;;;;;8.25;5.65;;;;;;;;;;5023662;28;20069;-81
2023/06/17 08:53:53;;;;;;;7.28;6.07;;;;;;;;;;5024588;28;20084;-82
2023/06/17 08:56:20;;;;;;;8.25;5.90;;;;;;;;;;5026266;28;20057;-83
2023/06/17 08:58:47;;;;;;;8.93;6.35;;;;;;;;;;5027755;28;20386;-82
2023/06/17 09:01:15;;;;;;;8.18;6.05;;;;;;;;;;5027302;28;20517;-80
2023/06/17 09:03:42;;;;;;;7.78;5.85;;;;;;;;;;5027897;28;20046;-81
2023/06/17 09:06:20;;;;;;;8.02;6.13;;;;;;;;;;5028558;28;20058;-81
2023/06/17 09:08:48;;;;;;;8.23;6.05;;;;;;;;;;5028167;28;20042;-81
2023/06/17 09:11:15;;;;;;;7.93;5.65;;;;;;;;;;5027818;28;20064;-82
2023/06/17 09:13:42;;;;;;;8.45;6.35;;;;;;;;;;5028104;28;20109;-82
2023/06/17 09:16:08;;;;;;;8.95;6.07;;;;;;;;;;5027061;28;20053;-82
2023/06/17 09:18:36;;;;;;;7.07;5.57;;;;;;;;;;5028370;28;20042;-82
2023/06/17 09:21:03;;;;;;;8.95;6.05;;;;;;;;;;5026866;28;20125;-81
2023/06/17 09:23:30;;;;;;;7.10;5.25;;;;;;;;;;5026205;28;20417;-80
2023/06/17 09:26:05;;;;;;;7.50;5.43;;;;;;;;;;5026857;28;20088;-82
2023/06/17 09:28:32;;;;;;;7.82;5.53;;;;;;;;;;5026638;28;20125;-81
2023/06/17 09:30:59;;;;;;;7.63;6.30;;;;;;;;;;5026861;28;20058;-81
2023/06/17 09:33:27;;;;;;;7.78;5.90;;;;;;;;;;5031331;28;20050;-81
2023/06/17 09:36:00;;;;;;;8.43;5.78;;;;;;;;;;5030179;28;20046;-81
2023/06/17 09:38:27;;;;;;;7.35;5.68;;;;;;;;;;5030224;28;20060;-81
2023/06/17 09:40:54;;;;;;;10.05;6.03;;;;;;;;;;5030733;28;20137;-82
2023/06/17 09:43:25;;;;;;;9.38;6.10;;;;;;;;;;5029479;28;20101;-81
2023/06/17 09:45:56;;;;;;;7.45;5.65;;;;;;;;;;5030000;28;20076;-82
2023/06/17 09:48:28;;;;;;;7.93;5.93;;;;;;;;;;5027527;28;20108;-81
2023/06/17 09:50:56;;;;;;;8.50;7.15;;;;;;;;;;5026593;28;20053;-81
2023/06/17 09:53:27;;;;;;;8.73;5.70;;;;;;;;;;5026694;28;20052;-81
2023/06/17 09:55:56;;;;;;;8.63;5.80;;;;;;;;;;5025658;28;20046;-82
2023/06/17 09:58:26;;;;;;;8.98;6.38;;;;;;;;;;5025203;28;20049;-82
2023/06/17 10:00:53;;;;;;;7.80;5.90;;;;;;;;;;5024133;28;20052;-81
2023/06/17 10:03:20;;;;;;;7.88;5.88;;;;;;;;;;5025403;28;20050;-81
2023/06/17 10:05:54;;;;;;;8.15;6.53;;;;;;;;;;5025996;28;20049;-81
2023/06/17 10:08:22;;;;;;;9.90;6.95;;;;;;;;;;5025563;28;20050;-81
2023/06/17 10:10:50;;;;;;;8.88;6.00;;;;;;;;;;5025893;28;20057;-81
2023/06/17 10:13:20;;;;;;;7.80;5.70;;;;;;;;;;5023971;28;20076;-80
2023/06/17 10:15:50;;;;;;;7.15;5.70;;;;;;;;;;5024095;28;20129;-82
2023/06/17 10:18:18;;;;;;;8.95;6.43;;;;;;;;;;5022033;28;20114;-80
2023/06/17 10:20:47;;;;;;;8.57;6.40;;;;;;;;;;5012147;28;20141;-81
2023/06/17 10:23:14;;;;;;;8.20;6.57;;;;;;;;;;5018987;28;20044;-81
2023/06/17 10:25:41;;;;;;;7.35;5.90;;;;;;;;;;5023512;28;20042;-82
2023/06/17 10:28:08;;;;;;;7.75;5.68;;;;;;;;;;5020403;28;20438;-83
2023/06/17 10:30:37;;;;;;;8.70;6.47;;;;;;;;;;5012694;28;20121;-84
2023/06/17 10:33:08;;;;;;;8.07;6.30;;;;;;;;;;5022330;28;20087;-84
2023/06/17 10:35:38;;;;;;;8.02;6.55;;;;;;;;;;5019178;28;20103;-83
2023/06/17 10:38:06;;;;;;;8.65;6.47;;;;;;;;;;5018555;28;20042;-83
2023/06/17 10:40:36;;;;;;;10.32;6.50;;;;;;;;;;5018237;28;20052;-83
2023/06/17 10:43:21;;;;;;;9.20;7.00;;;;;;;;;;5017428;28;20515;-79
2023/06/17 10:45:50;;;;;;;8.02;5.88;;;;;;;;;;5018118;28;20050;-83
2023/06/17 10:48:21;;;;;;;10.23;5.95;;;;;;;;;;5019109;28;20046;-82
2023/06/17 10:50:52;;;;;;;8.88;5.75;;;;;;;;;;5000567;28;20054;-83
2023/06/17 10:53:25;;;;;;;7.90;6.63;;;;;;;;;;5002134;28;20108;-82
2023/06/17 10:55:52;;;;;;;9.23;6.15;;;;;;;;;;5001970;28;20476;-81
2023/06/17 10:58:18;;;;;;;8.02;6.38;;;;;;;;;;5003217;28;20057;-82
2023/06/17 11:00:45;;;;;;;9.05;6.40;;;;;;;;;;5002567;28;20456;-82
2023/06/17 11:03:15;;;;;;;8.05;6.28;;;;;;;;;;5002662;28;20106;-82
2023/06/17 11:05:43;;;;;;;10.48;6.80;;;;;;;;;;5002627;28;20050;-82
2023/06/17 11:08:11;;;;;;;8.68;6.28;;;;;;;;;;5003189;28;20054;-83
2023/06/17 11:10:38;;;;;;;9.20;6.95;;;;;;;;;;5002634;28;20133;-82
2023/06/17 11:13:05;;;;;;;10.40;6.80;;;;;;;;;;5002353;28;20114;-83
2023/06/17 11:15:31;;;;;;;7.25;6.15;;;;;;;;;;5001842;28;20138;-82
2023/06/17 11:18:01;;;;;;;9.68;6.90;;;;;;;;;;5003827;28;20073;-82
2023/06/17 11:20:30;;;;;;;8.48;6.57;;;;;;;;;;5003132;28;20042;-82
2023/06/17 11:22:58;;;;;;;9.05;6.65;;;;;;;;;;5001520;28;20138;-83
2023/06/17 11:25:25;;;;;;;7.82;6.45;;;;;;;;;;5001959;28;20042;-83
2023/06/17 11:27:52;;;;;;;8.20;6.45;;;;;;;;;;5002488;28;20120;-83
2023/06/17 11:30:19;;;;;;;10.38;6.72;;;;;;;;;;5004329;28;20154;-83
2023/06/17 11:32:46;;;;;;;8.48;6.72;;;;;;;;;;5002395;28;20073;-83
2023/06/17 11:35:14;;;;;;;7.63;6.38;;;;;;;;;;5028406;28;20046;-82
2023/06/17 11:37:41;;;;;;;7.43;6.18;;;;;;;;;;5028021;28;20105;-83
2023/06/17 11:40:15;;;;;;;8.18;6.47;;;;;;;;;;5023243;28;20104;-83
2023/06/17 11:42:42;;;;;;;9.73;6.90;;;;;;;;;;5022482;28;20046;-83
2023/06/17 11:45:09;;;;;;;9.65;6.13;;;;;;;;;;5025741;28;20046;-83
2023/06/17 11:47:37;;;;;;;8.52;7.15;;;;;;;;;;5025151;28;20108;-84
2023/06/17 11:50:06;;;;;;;8.73;6.30;;;;;;;;;;5022432;28;20073;-83
2023/06/17 11:52:33;;;;;;;8.02;6.45;;;;;;;;;;5026787;28;20140;-82
2023/06/17 11:55:00;;;;;;;8.77;6.00;;;;;;;;;;5023057;28;20143;-82
2023/06/17 11:57:28;;;;;;;7.25;5.68;;;;;;;;;;5021036;28;20052;-84
2023/06/17 11:59:59;;;;;;;8.25;6.28;;;;;;;;;;5021278;28;20089;-83
2023/06/17 12:02:28;;;;;;;7.80;6.07;;;;;;;;;;5020748;28;20096;-83
2023/06/17 12:04:55;;;;;;;7.68;6.38;;;;;;;;;;5021666;28;20113;-83
2023/06/17 12:07:22;;;;;;;8.52;6.43;;;;;;;;;;5020312;28;20070;-83
2023/06/17 12:09:53;;;;;;;8.65;6.80;;;;;;;;;;5020402;28;20109;-84
2023/06/17 12:12:29;;;;;;;7.85;5.85;;;;;;;;;;5019685;28;20081;-83
2023/06/17 12:15:01;;;;;;;9.15;6.40;;;;;;;;;;5021258;28;20042;-83
2023/06/17 12:17:27;;;;;;;8.20;6.28;;;;;;;;;;5020456;28;20064;-83
2023/06/17 12:20:00;;;;;;;8.00;6.20;;;;;;;;;;5021108;28;20114;-83
2023/06/17 12:22:26;;;;;;;8.35;6.72;;;;;;;;;;5022744;28;20141;-82
2023/06/17 12:24:53;;;;;;;7.50;6.70;;;;;;;;;;5020236;28;20073;-83
2023/06/17 12:27:20;;;;;;;8.07;6.68;;;;;;;;;;5021743;28;20049;-82
2023/06/17 12:29:48;;;;;;;7.28;6.05;;;;;;;;;;5022709;28;20057;-82
2023/06/17 12:32:15;;;;;;;6.85;5.88;;;;;;;;;;5023610;28;20064;-83
2023/06/17 12:34:41;;;;;;;8.52;6.25;;;;;;;;;;5021459;28;20065;-83
2023/06/17 12:37:09;;;;;;;8.48;6.80;;;;;;;;;;5021447;28;20049;-83
2023/06/17 12:39:38;;;;;;;8.45;6.82;;;;;;;;;;5021314;28;20065;-83
2023/06/17 12:42:06;;;;;;;7.50;6.53;;;;;;;;;;5020332;28;20564;-83
2023/06/17 12:44:34;;;;;;;8.60;6.95;;;;;;;;;;5020925;28;20283;-83
2023/06/17 12:47:02;;;;;;;7.82;6.60;;;;;;;;;;5019116;28;20046;-83
2023/06/17 12:49:29;;;;;;;8.52;5.88;;;;;;;;;;5019200;28;20512;-84
2023/06/17 12:51:55;;;;;;;8.82;7.28;;;;;;;;;;5020069;28;20046;-83
2023/06/17 12:54:23;;;;;;;7.85;6.63;;;;;;;;;;5019037;28;20046;-83
2023/06/17 12:56:50;;;;;;;8.15;6.47;;;;;;;;;;5019683;28;20049;-82
2023/06/17 12:59:17;;;;;;;8.43;5.93;;;;;;;;;;5019518;28;20054;-83
2023/06/17 13:01:44;;;;;;;9.38;6.25;;;;;;;;;;5019941;28;20104;-84
2023/06/17 13:04:12;;;;;;;8.77;6.20;;;;;;;;;;5019740;28;20054;-81
2023/06/17 13:06:39;;;;;;;7.15;6.25;;;;;;;;;;5019102;28;20544;-82
2023/06/17 13:09:06;;;;;;;7.32;6.22;;;;;;;;;;5019613;28;20129;-82
2023/06/17 13:11:33;;;;;;;7.65;6.18;;;;;;;;;;5021025;28;20058;-81
2023/06/17 13:14:00;;;;;;;7.82;6.20;;;;;;;;;;5021234;28;20088;-80
2023/06/17 13:16:27;;;;;;;8.25;6.50;;;;;;;;;;5021320;28;20129;-83
2023/06/17 13:18:55;;;;;;;7.82;6.75;;;;;;;;;;5029575;28;20057;-83
2023/06/17 13:21:24;;;;;;;9.20;6.55;;;;;;;;;;5029827;28;20509;-83
2023/06/17 13:23:51;;;;;;;8.60;6.78;;;;;;;;;;5013704;28;20054;-83
2023/06/17 13:26:19;;;;;;;7.75;6.38;;;;;;;;;;5027930;28;20053;-84
2023/06/17 13:28:46;;;;;;;7.50;6.68;;;;;;;;;;5020009;28;20120;-85
2023/06/17 13:31:12;;;;;;;8.82;7.10;;;;;;;;;;5019396;28;20073;-84
2023/06/17 13:33:39;;;;;;;8.40;6.68;;;;;;;;;;5019387;28;20053;-81
2023/06/17 13:36:06;;;;;;;8.98;7.82;;;;;;;;;;5021624;28;20046;-82
2023/06/17 13:38:34;;;;;;;9.30;6.68;;;;;;;;;;5024067;28;20053;-81
2023/06/17 13:41:01;;;;;;;8.15;6.43;;;;;;;;;;5024966;28;20050;-82
2023/06/17 13:43:28;;;;;;;8.25;7.32;;;;;;;;;;5025529;28;20065;-83
2023/06/17 13:45:54;;;;;;;8.77;6.50;;;;;;;;;;5024878;28;20096;-84
2023/06/17 13:48:21;;;;;;;7.78;6.70;;;;;;;;;;5025088;28;20046;-83
2023/06/17 13:50:48;;;;;;;7.32;6.40;;;;;;;;;;5024072;28;20046;-84
2023/06/17 13:53:15;;;;;;;8.18;6.72;;;;;;;;;;5025221;28;20077;-84
2023/06/17 13:55:43;;;;;;;7.30;6.40;;;;;;;;;;5024173;28;20046;-83
2023/06/17 13:58:10;;;;;;;8.20;6.57;;;;;;;;;;5023732;28;20049;-84
2023/06/17 14:00:37;;;;;;;8.15;6.72;;;;;;;;;;5022855;28;20042;-84
2023/06/17 14:03:03;;;;;;;8.85;7.07;;;;;;;;;;5023449;28;20062;-81
2023/06/17 14:05:30;;;;;;;10.55;7.10;;;;;;;;;;5023624;28;20081;-81
2023/06/17 14:07:57;;;;;;;9.30;6.65;;;;;;;;;;5023577;28;20050;-82
2023/06/17 14:10:24;;;;;;;8.52;6.70;;;;;;;;;;5022635;28;20069;-82
2023/06/17 14:12:53;;;;;;;8.50;7.18;;;;;;;;;;5022709;28;20054;-83
2023/06/17 14:15:19;;;;;;;7.88;6.38;;;;;;;;;;5021797;28;20065;-83
2023/06/17 14:17:46;;;;;;;7.88;6.72;;;;;;;;;;5022396;28;20120;-83
2023/06/17 14:20:13;;;;;;;8.35;6.43;;;;;;;;;;5022330;28;20049;-83
2023/06/17 14:22:40;;;;;;;8.52;7.13;;;;;;;;;;5022195;28;20050;-83
2023/06/17 14:25:07;;;;;;;9.00;7.10;;;;;;;;;;5022373;28;20050;-84
2023/06/17 14:27:41;;;;;;;7.85;6.53;;;;;;;;;;5022151;28;20057;-83
2023/06/17 14:30:11;;;;;;;7.47;6.47;;;;;;;;;;5022704;28;20438;-83
2023/06/17 14:32:37;;;;;;;;;;;;;;;;;;5023415;28;20056;-83
2023/06/17 14:35:05;;;;;;;8.02;6.93;;;;;;;;;;5026944;28;19922;-83
2023/06/17 14:37:32;;;;;;;8.23;7.30;;;;;;;;;;5029274;28;20084;-82
2023/06/17 14:39:59;;;;;;;8.43;6.60;;;;;;;;;;5029177;28;20046;-83